createdAt,value
2018-08-27T00:00:00.343Z,0
2018-08-27T00:00:40.821Z,0
2018-08-27T00:01:21.312Z,0
2018-08-27T00:02:01.761Z,0
2018-08-27T00:02:42.255Z,0
2018-08-27T00:03:22.730Z,0
2018-08-27T00:04:03.201Z,0
2018-08-27T00:04:43.699Z,0
2018-08-27T00:05:24.188Z,0
2018-08-27T00:06:04.679Z,0
2018-08-27T00:06:45.145Z,0
2018-08-27T00:07:25.647Z,0
2018-08-27T00:08:06.142Z,0
2018-08-27T00:08:46.613Z,0
2018-08-27T00:09:27.214Z,0
2018-08-27T00:10:07.725Z,0
2018-08-27T00:10:48.182Z,0
2018-08-27T00:11:28.664Z,0
2018-08-27T00:12:09.142Z,0
2018-08-27T00:12:49.662Z,0
2018-08-27T00:13:30.151Z,0
2018-08-27T00:14:10.668Z,0
2018-08-27T00:14:51.180Z,0
2018-08-27T00:15:31.680Z,0
2018-08-27T00:16:12.172Z,0
2018-08-27T00:16:52.674Z,0
2018-08-27T00:17:33.250Z,0
2018-08-27T00:18:13.719Z,0
2018-08-27T00:18:54.234Z,0
2018-08-27T00:19:34.799Z,0
2018-08-27T00:20:15.333Z,0
2018-08-27T00:20:55.792Z,0
2018-08-27T00:21:36.365Z,0
2018-08-27T00:22:16.790Z,0
2018-08-27T00:22:57.267Z,0
2018-08-27T00:23:37.818Z,0
2018-08-27T00:24:18.310Z,0
2018-08-27T00:24:58.803Z,0
2018-08-27T00:25:39.296Z,0
2018-08-27T00:26:19.758Z,0
2018-08-27T00:27:00.257Z,0
2018-08-27T00:27:40.764Z,0
2018-08-27T00:28:21.258Z,0
2018-08-27T00:29:01.747Z,0
2018-08-27T00:29:42.264Z,0
2018-08-27T00:30:22.831Z,0
2018-08-27T00:31:03.313Z,0
2018-08-27T00:31:43.808Z,0
2018-08-27T00:32:24.313Z,0
2018-08-27T00:33:04.797Z,0
2018-08-27T00:33:45.317Z,0
2018-08-27T00:34:25.793Z,0
2018-08-27T00:35:06.273Z,0
2018-08-27T00:35:46.761Z,0
2018-08-27T00:36:27.252Z,0
2018-08-27T00:37:07.828Z,0
2018-08-27T00:37:48.318Z,0
2018-08-27T00:38:28.837Z,0
2018-08-27T00:39:09.328Z,0
2018-08-27T00:39:49.814Z,0
2018-08-27T00:40:30.286Z,0
2018-08-27T00:41:10.798Z,0
2018-08-27T00:41:51.293Z,0
2018-08-27T00:42:31.738Z,0
2018-08-27T00:43:12.238Z,0
2018-08-27T00:43:52.751Z,0
2018-08-27T00:44:33.261Z,0
2018-08-27T00:45:13.811Z,0
2018-08-27T00:45:54.300Z,0
2018-08-27T00:46:34.739Z,0
2018-08-27T00:47:15.261Z,0
2018-08-27T00:47:55.758Z,0
2018-08-27T00:48:36.320Z,0
2018-08-27T00:49:16.730Z,0
2018-08-27T00:49:57.210Z,0
2018-08-27T00:50:37.782Z,0
2018-08-27T00:51:18.184Z,0
2018-08-27T00:51:58.659Z,0
2018-08-27T00:52:39.197Z,0
2018-08-27T00:53:19.692Z,0
2018-08-27T00:54:00.179Z,0
2018-08-27T00:54:40.708Z,0
2018-08-27T00:55:21.203Z,0
2018-08-27T00:56:01.695Z,0
2018-08-27T00:56:42.204Z,0
2018-08-27T00:57:22.637Z,0
2018-08-27T00:58:03.076Z,0
2018-08-27T00:58:43.585Z,0
2018-08-27T00:59:24.115Z,0
2018-08-27T01:00:04.590Z,0
2018-08-27T01:00:45.080Z,0
2018-08-27T01:01:25.612Z,0
2018-08-27T01:02:06.124Z,0
2018-08-27T01:02:46.616Z,0
2018-08-27T01:03:27.116Z,0
2018-08-27T01:04:07.615Z,0
2018-08-27T01:04:48.127Z,0
2018-08-27T01:05:28.571Z,0
2018-08-27T01:06:09.077Z,0
2018-08-27T01:06:49.598Z,0
2018-08-27T01:07:30.026Z,0
2018-08-27T01:08:10.521Z,0
2018-08-27T01:08:51.010Z,0
2018-08-27T01:09:31.505Z,0
2018-08-27T01:10:11.969Z,0
2018-08-27T01:10:52.451Z,0
2018-08-27T01:11:32.918Z,0
2018-08-27T01:12:13.449Z,0
2018-08-27T01:12:53.932Z,0
2018-08-27T01:13:34.417Z,0
2018-08-27T01:14:14.871Z,0
2018-08-27T01:14:55.398Z,0
2018-08-27T01:15:35.892Z,0
2018-08-27T01:16:16.425Z,0
2018-08-27T01:16:56.899Z,0
2018-08-27T01:17:37.431Z,0
2018-08-27T01:18:17.898Z,0
2018-08-27T01:18:58.421Z,0
2018-08-27T01:19:38.901Z,0
2018-08-27T01:20:19.394Z,0
2018-08-27T01:20:59.884Z,0
2018-08-27T01:21:40.334Z,0
2018-08-27T01:22:20.974Z,0
2018-08-27T01:23:01.428Z,0
2018-08-27T01:23:41.942Z,0
2018-08-27T01:24:22.422Z,0
2018-08-27T01:25:02.886Z,0
2018-08-27T01:25:43.386Z,0
2018-08-27T01:26:23.873Z,0
2018-08-27T01:27:04.360Z,0
2018-08-27T01:27:44.815Z,0
2018-08-27T01:28:25.347Z,0
2018-08-27T01:29:05.844Z,0
2018-08-27T01:29:46.308Z,0
2018-08-27T01:30:26.789Z,0
2018-08-27T01:31:07.320Z,0
2018-08-27T01:31:47.814Z,0
2018-08-27T01:32:28.237Z,0
2018-08-27T01:33:08.751Z,0
2018-08-27T01:33:49.216Z,0
2018-08-27T01:34:29.771Z,0
2018-08-27T01:35:10.258Z,0
2018-08-27T01:35:50.728Z,0
2018-08-27T01:36:31.208Z,0
2018-08-27T01:37:11.716Z,0
2018-08-27T01:37:52.203Z,0
2018-08-27T01:38:32.664Z,0
2018-08-27T01:39:13.161Z,0
2018-08-27T01:39:53.652Z,0
2018-08-27T01:40:34.143Z,0
2018-08-27T01:41:14.641Z,0
2018-08-27T01:41:55.142Z,0
2018-08-27T01:42:35.653Z,0
2018-08-27T01:43:16.092Z,0
2018-08-27T01:43:56.603Z,0
2018-08-27T01:44:37.069Z,0
2018-08-27T01:45:17.550Z,0
2018-08-27T01:45:58.051Z,0
2018-08-27T01:46:38.559Z,0
2018-08-27T01:47:19.070Z,0
2018-08-27T01:47:59.601Z,0
2018-08-27T01:48:40.090Z,0
2018-08-27T01:49:20.546Z,0
2018-08-27T01:50:01.052Z,0
2018-08-27T01:50:41.638Z,0
2018-08-27T01:51:22.135Z,0
2018-08-27T01:52:02.600Z,0
2018-08-27T01:52:43.114Z,0
2018-08-27T01:53:23.602Z,0
2018-08-27T01:54:04.054Z,0
2018-08-27T01:54:44.589Z,0
2018-08-27T01:55:25.072Z,0
2018-08-27T01:56:05.544Z,0
2018-08-27T01:56:46.083Z,0
2018-08-27T01:57:26.561Z,0
2018-08-27T01:58:07.071Z,0
2018-08-27T01:58:47.530Z,0
2018-08-27T01:59:28.072Z,0
2018-08-27T02:00:08.540Z,0
2018-08-27T02:00:49.006Z,0
2018-08-27T02:01:29.537Z,0
2018-08-27T02:02:09.980Z,0
2018-08-27T02:02:50.493Z,0
2018-08-27T02:03:30.943Z,0
2018-08-27T02:04:11.484Z,0
2018-08-27T02:04:51.975Z,0
2018-08-27T02:05:32.436Z,0
2018-08-27T02:06:12.913Z,0
2018-08-27T02:06:53.407Z,0
2018-08-27T02:07:33.887Z,0
2018-08-27T02:08:14.413Z,0
2018-08-27T02:08:54.920Z,0
2018-08-27T02:09:35.445Z,0
2018-08-27T02:10:15.901Z,0
2018-08-27T02:10:56.451Z,0
2018-08-27T02:11:36.868Z,0
2018-08-27T02:12:17.411Z,0
2018-08-27T02:12:57.873Z,0
2018-08-27T02:13:38.332Z,0
2018-08-27T02:14:18.852Z,0
2018-08-27T02:14:59.333Z,0
2018-08-27T02:15:39.873Z,0
2018-08-27T02:16:20.328Z,0
2018-08-27T02:17:00.813Z,0
2018-08-27T02:17:41.284Z,0
2018-08-27T02:18:21.779Z,0
2018-08-27T02:19:02.308Z,0
2018-08-27T02:19:42.779Z,0
2018-08-27T02:20:23.297Z,0
2018-08-27T02:21:03.746Z,0
2018-08-27T02:21:44.313Z,0
2018-08-27T02:22:24.782Z,0
2018-08-27T02:23:05.290Z,0
2018-08-27T02:23:45.777Z,0
2018-08-27T02:24:26.251Z,0
2018-08-27T02:25:06.761Z,0
2018-08-27T02:25:47.266Z,0
2018-08-27T02:26:28.597Z,0
2018-08-27T02:27:09.115Z,0
2018-08-27T02:27:49.587Z,0
2018-08-27T02:28:30.124Z,0
2018-08-27T02:29:10.595Z,0
2018-08-27T02:29:51.089Z,0
2018-08-27T02:30:31.546Z,0
2018-08-27T02:31:12.021Z,0
2018-08-27T02:31:52.577Z,0
2018-08-27T02:32:33.083Z,0
2018-08-27T02:33:13.563Z,0
2018-08-27T02:33:54.068Z,0
2018-08-27T02:34:34.654Z,0
2018-08-27T02:35:15.278Z,0
2018-08-27T02:35:55.649Z,0
2018-08-27T02:36:36.123Z,0
2018-08-27T02:37:16.634Z,0
2018-08-27T02:37:57.124Z,0
2018-08-27T02:38:37.645Z,0
2018-08-27T02:39:18.129Z,0
2018-08-27T02:39:58.616Z,0
2018-08-27T02:40:39.110Z,0
2018-08-27T02:41:19.627Z,0
2018-08-27T02:42:00.095Z,0
2018-08-27T02:42:40.580Z,0
2018-08-27T02:43:21.087Z,0
2018-08-27T02:44:01.609Z,0
2018-08-27T02:44:42.062Z,0
2018-08-27T02:45:22.553Z,0
2018-08-27T02:46:03.054Z,0
2018-08-27T02:46:43.545Z,0
2018-08-27T02:47:24.048Z,0
2018-08-27T02:48:04.487Z,0
2018-08-27T02:48:45.082Z,0
2018-08-27T02:49:25.547Z,0
2018-08-27T02:50:06.047Z,0
2018-08-27T02:50:46.562Z,0
2018-08-27T02:51:27.066Z,0
2018-08-27T02:52:07.538Z,0
2018-08-27T02:52:48.025Z,0
2018-08-27T02:53:28.520Z,0
2018-08-27T02:54:08.980Z,0
2018-08-27T02:54:49.459Z,0
2018-08-27T02:55:29.916Z,0
2018-08-27T02:56:10.588Z,0
2018-08-27T02:56:51.047Z,0
2018-08-27T02:57:31.545Z,0
2018-08-27T02:58:12.050Z,0
2018-08-27T02:58:52.528Z,0
2018-08-27T02:59:32.968Z,0
2018-08-27T03:00:13.457Z,0
2018-08-27T03:00:53.977Z,0
2018-08-27T03:01:34.445Z,0
2018-08-27T03:02:14.959Z,0
2018-08-27T03:02:55.444Z,0
2018-08-27T03:03:35.939Z,0
2018-08-27T03:04:16.437Z,0
2018-08-27T03:04:56.896Z,0
2018-08-27T03:05:37.401Z,0
2018-08-27T03:06:17.891Z,0
2018-08-27T03:06:58.388Z,0
2018-08-27T03:07:38.957Z,0
2018-08-27T03:08:19.343Z,0
2018-08-27T03:08:59.880Z,0
2018-08-27T03:09:40.387Z,0
2018-08-27T03:10:20.856Z,0
2018-08-27T03:11:01.345Z,0
2018-08-27T03:11:41.869Z,0
2018-08-27T03:12:22.327Z,0
2018-08-27T03:13:02.807Z,0
2018-08-27T03:13:43.289Z,0
2018-08-27T03:14:23.756Z,0
2018-08-27T03:15:04.244Z,0
2018-08-27T03:15:44.730Z,0
2018-08-27T03:16:25.227Z,0
2018-08-27T03:17:05.677Z,0
2018-08-27T03:17:46.220Z,0
2018-08-27T03:18:26.738Z,0
2018-08-27T03:19:07.135Z,0
2018-08-27T03:19:47.663Z,0
2018-08-27T03:20:28.131Z,0
2018-08-27T03:21:08.651Z,0
2018-08-27T03:21:49.136Z,0
2018-08-27T03:22:29.597Z,0
2018-08-27T03:23:10.187Z,0
2018-08-27T03:23:50.695Z,0
2018-08-27T03:24:31.190Z,0
2018-08-27T03:25:11.689Z,0
2018-08-27T03:25:52.263Z,0
2018-08-27T03:26:32.745Z,0
2018-08-27T03:27:13.148Z,0
2018-08-27T03:27:53.630Z,0
2018-08-27T03:28:34.114Z,0
2018-08-27T03:29:14.623Z,0
2018-08-27T03:29:55.092Z,0
2018-08-27T03:30:35.602Z,0
2018-08-27T03:31:16.056Z,0
2018-08-27T03:31:56.543Z,0
2018-08-27T03:32:37.061Z,0
2018-08-27T03:33:17.534Z,0
2018-08-27T03:33:58.066Z,0
2018-08-27T03:34:38.559Z,0
2018-08-27T03:35:19.067Z,0
2018-08-27T03:35:59.578Z,0
2018-08-27T03:36:40.087Z,0
2018-08-27T03:37:20.606Z,0
2018-08-27T03:38:01.100Z,0
2018-08-27T03:38:41.576Z,0
2018-08-27T03:39:22.105Z,0
2018-08-27T03:40:02.608Z,0
2018-08-27T03:40:43.183Z,0
2018-08-27T03:41:23.587Z,0
2018-08-27T03:42:04.034Z,0
2018-08-27T03:42:44.518Z,0
2018-08-27T03:43:25.022Z,0
2018-08-27T03:44:05.510Z,0
2018-08-27T03:44:45.988Z,0
2018-08-27T03:45:26.491Z,0
2018-08-27T03:46:06.993Z,0
2018-08-27T03:46:47.469Z,0
2018-08-27T03:47:28.023Z,0
2018-08-27T03:48:08.435Z,0
2018-08-27T03:48:48.922Z,0
2018-08-27T03:49:29.399Z,0
2018-08-27T03:50:09.890Z,0
2018-08-27T03:50:50.373Z,0
2018-08-27T03:51:30.830Z,0
2018-08-27T03:52:11.356Z,0
2018-08-27T03:52:51.856Z,0
2018-08-27T03:53:32.361Z,0
2018-08-27T03:54:12.839Z,0
2018-08-27T03:54:53.354Z,0
2018-08-27T03:55:33.769Z,0
2018-08-27T03:56:14.274Z,0
2018-08-27T03:56:54.806Z,0
2018-08-27T03:57:35.256Z,0
2018-08-27T03:58:15.736Z,0
2018-08-27T03:58:56.254Z,0
2018-08-27T03:59:36.762Z,0
2018-08-27T04:00:17.240Z,0
2018-08-27T04:00:57.754Z,0
2018-08-27T04:01:38.252Z,0
2018-08-27T04:02:18.709Z,0
2018-08-27T04:02:59.237Z,0
2018-08-27T04:03:39.791Z,0
2018-08-27T04:04:20.809Z,0
2018-08-27T04:05:01.278Z,0
2018-08-27T04:05:41.800Z,0
2018-08-27T04:06:22.246Z,0
2018-08-27T04:07:02.721Z,0
2018-08-27T04:07:43.227Z,0
2018-08-27T04:08:23.751Z,0
2018-08-27T04:09:04.309Z,0
2018-08-27T04:09:44.778Z,0
2018-08-27T04:10:25.273Z,0
2018-08-27T04:11:05.766Z,0
2018-08-27T04:11:46.291Z,0
2018-08-27T04:12:26.754Z,0
2018-08-27T04:13:07.190Z,0
2018-08-27T04:13:47.712Z,0
2018-08-27T04:14:28.227Z,0
2018-08-27T04:15:08.694Z,0
2018-08-27T04:15:49.192Z,0
2018-08-27T04:16:29.685Z,0
2018-08-27T04:17:10.191Z,0
2018-08-27T04:17:50.672Z,0
2018-08-27T04:18:31.194Z,0
2018-08-27T04:19:11.686Z,0
2018-08-27T04:19:52.182Z,0
2018-08-27T04:20:32.688Z,0
2018-08-27T04:21:13.122Z,0
2018-08-27T04:21:53.629Z,0
2018-08-27T04:22:34.131Z,0
2018-08-27T04:23:14.636Z,0
2018-08-27T04:23:55.145Z,0
2018-08-27T04:24:35.681Z,0
2018-08-27T04:25:16.107Z,0
2018-08-27T04:25:56.630Z,0
2018-08-27T04:26:37.094Z,0
2018-08-27T04:27:17.575Z,0
2018-08-27T04:27:58.092Z,0
2018-08-27T04:28:38.613Z,0
2018-08-27T04:29:19.030Z,0
2018-08-27T04:29:59.534Z,0
2018-08-27T04:30:40.038Z,0
2018-08-27T04:31:20.477Z,0
2018-08-27T04:32:00.995Z,0
2018-08-27T04:32:41.496Z,0
2018-08-27T04:33:21.970Z,0
2018-08-27T04:34:02.507Z,0
2018-08-27T04:34:42.952Z,0
2018-08-27T04:35:23.469Z,0
2018-08-27T04:36:03.904Z,0
2018-08-27T04:36:44.406Z,0
2018-08-27T04:37:24.899Z,0
2018-08-27T04:38:05.417Z,0
2018-08-27T04:38:45.928Z,0
2018-08-27T04:39:26.456Z,0
2018-08-27T04:40:06.939Z,0
2018-08-27T04:40:47.421Z,0
2018-08-27T04:41:27.897Z,0
2018-08-27T04:42:08.418Z,0
2018-08-27T04:42:48.889Z,0
2018-08-27T04:43:29.413Z,0
2018-08-27T04:44:09.890Z,0
2018-08-27T04:44:50.361Z,0
2018-08-27T04:45:30.961Z,0
2018-08-27T04:46:11.412Z,5
2018-08-27T04:46:51.940Z,5
2018-08-27T04:47:32.401Z,5
2018-08-27T04:48:12.892Z,5
2018-08-27T04:48:53.383Z,5
2018-08-27T04:51:29.351Z,5
2018-08-27T04:52:09.857Z,5
2018-08-27T04:52:50.369Z,5
2018-08-27T04:53:30.839Z,5
2018-08-27T04:54:11.356Z,5
2018-08-27T04:54:51.901Z,5
2018-08-27T04:55:32.416Z,5
2018-08-27T04:56:12.943Z,5
2018-08-27T04:56:53.386Z,5
2018-08-27T04:57:33.887Z,5
2018-08-27T04:58:14.361Z,5
2018-08-27T04:58:54.821Z,5
2018-08-27T04:59:35.289Z,5
2018-08-27T05:00:15.798Z,10
2018-08-27T05:00:56.261Z,10
2018-08-27T05:01:36.830Z,10
2018-08-27T05:02:17.298Z,10
2018-08-27T05:02:57.795Z,10
2018-08-27T05:03:38.258Z,10
2018-08-27T05:04:18.757Z,15
2018-08-27T05:04:59.246Z,15
2018-08-27T05:05:39.728Z,15
2018-08-27T05:06:20.235Z,20
2018-08-27T05:07:00.727Z,20
2018-08-27T05:07:41.236Z,25
2018-08-27T05:08:21.740Z,25
2018-08-27T05:09:02.239Z,25
2018-08-27T05:09:42.709Z,25
2018-08-27T05:10:23.245Z,25
2018-08-27T05:11:03.806Z,25
2018-08-27T05:11:44.240Z,25
2018-08-27T05:12:24.726Z,25
2018-08-27T05:13:05.211Z,25
2018-08-27T05:13:45.747Z,25
2018-08-27T05:14:26.271Z,25
2018-08-27T05:15:06.725Z,25
2018-08-27T05:15:47.218Z,25
2018-08-27T05:16:27.706Z,25
2018-08-27T05:17:08.213Z,25
2018-08-27T05:17:48.740Z,25
2018-08-27T05:18:29.302Z,25
2018-08-27T05:19:09.803Z,25
2018-08-27T05:19:50.249Z,25
2018-08-27T05:20:30.731Z,25
2018-08-27T05:21:11.247Z,25
2018-08-27T05:21:51.712Z,25
2018-08-27T05:22:32.242Z,25
2018-08-27T05:23:12.695Z,20
2018-08-27T05:23:53.232Z,20
2018-08-27T05:24:33.704Z,20
2018-08-27T05:25:14.197Z,20
2018-08-27T05:25:54.658Z,20
2018-08-27T05:26:35.160Z,20
2018-08-27T05:27:15.702Z,20
2018-08-27T05:27:56.225Z,20
2018-08-27T05:28:36.683Z,20
2018-08-27T05:29:17.114Z,20
2018-08-27T05:29:57.641Z,20
2018-08-27T05:30:38.125Z,20
2018-08-27T05:31:18.763Z,20
2018-08-27T05:31:59.139Z,20
2018-08-27T05:32:39.651Z,20
2018-08-27T05:33:20.099Z,20
2018-08-27T05:34:00.622Z,20
2018-08-27T05:34:41.129Z,20
2018-08-27T05:35:21.560Z,20
2018-08-27T05:36:02.050Z,20
2018-08-27T05:36:42.568Z,25
2018-08-27T05:37:23.107Z,25
2018-08-27T05:38:03.639Z,25
2018-08-27T05:38:44.086Z,25
2018-08-27T05:39:24.577Z,25
2018-08-27T05:40:05.090Z,25
2018-08-27T05:40:45.607Z,25
2018-08-27T05:41:26.093Z,25
2018-08-27T05:42:06.627Z,25
2018-08-27T05:42:47.112Z,25
2018-08-27T05:43:27.571Z,25
2018-08-27T05:44:08.224Z,25
2018-08-27T05:44:48.731Z,25
2018-08-27T05:45:29.200Z,25
2018-08-27T05:46:09.666Z,25
2018-08-27T05:46:50.224Z,30
2018-08-27T05:47:30.785Z,30
2018-08-27T05:48:11.231Z,30
2018-08-27T05:48:51.747Z,30
2018-08-27T05:49:32.230Z,30
2018-08-27T05:50:12.982Z,35
2018-08-27T05:50:53.530Z,35
2018-08-27T05:51:34.001Z,40
2018-08-27T05:52:14.613Z,40
2018-08-27T05:52:55.035Z,40
2018-08-27T05:53:35.507Z,40
2018-08-27T05:54:15.979Z,40
2018-08-27T05:54:56.504Z,40
2018-08-27T05:55:36.986Z,35
2018-08-27T05:56:17.512Z,35
2018-08-27T05:56:58.039Z,35
2018-08-27T05:57:38.512Z,35
2018-08-27T05:58:19.012Z,35
2018-08-27T05:58:59.530Z,35
2018-08-27T05:59:40.075Z,35
2018-08-27T06:00:20.538Z,35
2018-08-27T06:01:01.062Z,35
2018-08-27T06:01:41.630Z,40
2018-08-27T06:02:22.075Z,40
2018-08-27T06:03:02.931Z,40
2018-08-27T06:03:43.317Z,40
2018-08-27T06:04:23.824Z,40
2018-08-27T06:05:04.452Z,40
2018-08-27T06:05:44.935Z,45
2018-08-27T06:06:25.477Z,45
2018-08-27T06:07:05.930Z,45
2018-08-27T06:07:46.426Z,50
2018-08-27T06:08:26.914Z,55
2018-08-27T06:09:07.417Z,55
2018-08-27T06:09:47.952Z,55
2018-08-27T06:10:29.583Z,55
2018-08-27T06:11:10.168Z,55
2018-08-27T06:11:50.664Z,55
2018-08-27T06:12:31.057Z,60
2018-08-27T06:13:11.584Z,60
2018-08-27T06:13:52.040Z,55
2018-08-27T06:14:32.525Z,55
2018-08-27T06:15:13.062Z,55
2018-08-27T06:15:53.532Z,50
2018-08-27T06:16:34.132Z,50
2018-08-27T06:17:14.705Z,45
2018-08-27T06:17:55.139Z,45
2018-08-27T06:18:35.581Z,45
2018-08-27T06:19:16.061Z,45
2018-08-27T06:19:56.807Z,40
2018-08-27T06:20:37.312Z,40
2018-08-27T06:21:17.800Z,40
2018-08-27T06:21:58.329Z,40
2018-08-27T06:22:38.796Z,40
2018-08-27T06:23:19.305Z,40
2018-08-27T06:23:59.803Z,40
2018-08-27T06:24:40.339Z,40
2018-08-27T06:25:20.806Z,40
2018-08-27T06:26:01.247Z,40
2018-08-27T06:26:42.484Z,40
2018-08-27T06:27:23.048Z,40
2018-08-27T06:28:03.574Z,40
2018-08-27T06:28:44.012Z,40
2018-08-27T06:29:24.505Z,40
2018-08-27T06:30:04.986Z,40
2018-08-27T06:30:45.476Z,40
2018-08-27T06:31:25.905Z,45
2018-08-27T06:32:06.647Z,45
2018-08-27T06:32:47.136Z,50
2018-08-27T06:33:27.641Z,50
2018-08-27T06:34:08.220Z,55
2018-08-27T06:34:48.601Z,60
2018-08-27T06:35:29.103Z,65
2018-08-27T06:36:09.577Z,70
2018-08-27T06:36:50.099Z,75
2018-08-27T06:37:30.604Z,75
2018-08-27T06:38:11.085Z,75
2018-08-27T06:38:51.547Z,75
2018-08-27T06:39:32.023Z,75
2018-08-27T06:40:12.552Z,75
2018-08-27T06:40:53.063Z,70
2018-08-27T06:41:33.534Z,70
2018-08-27T06:42:14.017Z,65
2018-08-27T06:42:54.524Z,60
2018-08-27T06:43:35.010Z,60
2018-08-27T06:44:15.508Z,60
2018-08-27T06:44:56.019Z,60
2018-08-27T06:45:36.511Z,60
2018-08-27T06:46:16.991Z,65
2018-08-27T06:46:57.481Z,70
2018-08-27T06:47:37.892Z,75
2018-08-27T06:48:18.403Z,80
2018-08-27T06:48:58.935Z,90
2018-08-27T06:49:39.408Z,90
2018-08-27T06:50:19.887Z,95
2018-08-27T06:51:00.369Z,95
2018-08-27T06:51:40.834Z,100
2018-08-27T06:52:21.371Z,100
2018-08-27T06:53:01.828Z,95
2018-08-27T06:53:42.353Z,95
2018-08-27T06:54:22.838Z,90
2018-08-27T06:55:03.349Z,90
2018-08-27T06:55:43.910Z,90
2018-08-27T06:56:24.337Z,90
2018-08-27T06:57:04.887Z,90
2018-08-27T06:57:45.387Z,90
2018-08-27T06:58:25.842Z,90
2018-08-27T06:59:06.365Z,90
2018-08-27T06:59:46.933Z,85
2018-08-27T07:00:27.481Z,85
2018-08-27T07:01:07.939Z,80
2018-08-27T07:01:48.431Z,80
2018-08-27T07:02:28.979Z,75
2018-08-27T07:03:09.533Z,75
2018-08-27T07:03:50.692Z,75
2018-08-27T07:04:31.175Z,75
2018-08-27T07:05:11.723Z,75
2018-08-27T07:05:52.202Z,75
2018-08-27T07:06:32.685Z,80
2018-08-27T07:07:13.224Z,80
2018-08-27T07:07:53.704Z,75
2018-08-27T07:08:34.189Z,75
2018-08-27T07:09:14.679Z,70
2018-08-27T07:09:55.197Z,70
2018-08-27T07:10:35.685Z,65
2018-08-27T07:11:16.198Z,65
2018-08-27T07:11:56.681Z,65
2018-08-27T07:12:37.418Z,65
2018-08-27T07:13:17.684Z,65
2018-08-27T07:13:58.198Z,65
2018-08-27T07:14:38.669Z,70
2018-08-27T07:15:19.227Z,70
2018-08-27T07:15:59.698Z,75
2018-08-27T07:16:40.133Z,75
2018-08-27T07:17:20.632Z,80
2018-08-27T07:18:01.117Z,80
2018-08-27T07:18:41.591Z,85
2018-08-27T07:19:22.063Z,85
2018-08-27T07:20:02.579Z,90
2018-08-27T07:20:43.099Z,90
2018-08-27T07:21:23.597Z,100
2018-08-27T07:22:04.102Z,110
2018-08-27T07:22:44.582Z,115
2018-08-27T07:23:25.079Z,125
2018-08-27T07:24:05.548Z,130
2018-08-27T07:24:46.046Z,135
2018-08-27T07:25:26.529Z,135
2018-08-27T07:26:07.028Z,130
2018-08-27T07:26:47.544Z,120
2018-08-27T07:27:28.039Z,110
2018-08-27T07:28:08.612Z,100
2018-08-27T07:28:49.003Z,90
2018-08-27T07:29:29.465Z,90
2018-08-27T07:30:10.007Z,85
2018-08-27T07:30:50.504Z,80
2018-08-27T07:31:30.988Z,75
2018-08-27T07:32:11.462Z,70
2018-08-27T07:32:51.951Z,65
2018-08-27T07:33:32.499Z,65
2018-08-27T07:34:12.995Z,60
2018-08-27T07:34:53.469Z,55
2018-08-27T07:35:34.111Z,55
2018-08-27T07:36:14.555Z,55
2018-08-27T07:36:55.034Z,55
2018-08-27T07:37:35.581Z,55
2018-08-27T07:38:16.021Z,55
2018-08-27T07:38:56.577Z,55
2018-08-27T07:39:37.014Z,55
2018-08-27T07:40:17.562Z,60
2018-08-27T07:40:58.173Z,60
2018-08-27T07:41:38.594Z,65
2018-08-27T07:42:19.134Z,70
2018-08-27T07:42:59.649Z,75
2018-08-27T07:43:40.296Z,75
2018-08-27T07:44:20.640Z,80
2018-08-27T07:45:01.144Z,85
2018-08-27T07:45:41.607Z,90
2018-08-27T07:46:22.140Z,90
2018-08-27T07:47:02.648Z,95
2018-08-27T07:47:43.092Z,95
2018-08-27T07:48:23.604Z,95
2018-08-27T07:49:04.060Z,95
2018-08-27T07:49:44.589Z,95
2018-08-27T07:50:25.122Z,100
2018-08-27T07:51:05.607Z,100
2018-08-27T07:51:46.138Z,105
2018-08-27T07:52:26.607Z,110
2018-08-27T07:53:07.090Z,120
2018-08-27T07:53:47.593Z,125
2018-08-27T07:54:28.087Z,125
2018-08-27T07:55:08.578Z,130
2018-08-27T07:55:49.139Z,130
2018-08-27T07:56:29.586Z,135
2018-08-27T07:57:10.086Z,130
2018-08-27T07:57:50.592Z,130
2018-08-27T07:58:31.138Z,130
2018-08-27T07:59:11.620Z,125
2018-08-27T07:59:52.100Z,120
2018-08-27T08:00:32.583Z,120
2018-08-27T08:01:13.106Z,115
2018-08-27T08:01:53.653Z,115
2018-08-27T08:02:34.231Z,110
2018-08-27T08:03:14.717Z,110
2018-08-27T08:03:55.173Z,110
2018-08-27T08:04:35.637Z,105
2018-08-27T08:05:16.157Z,100
2018-08-27T08:05:56.675Z,95
2018-08-27T08:06:37.196Z,90
2018-08-27T08:07:17.746Z,85
2018-08-27T08:07:58.132Z,90
2018-08-27T08:08:38.639Z,90
2018-08-27T08:09:19.135Z,90
2018-08-27T08:09:59.620Z,90
2018-08-27T08:10:40.135Z,90
2018-08-27T08:11:20.640Z,95
2018-08-27T08:12:01.361Z,95
2018-08-27T08:12:41.839Z,95
2018-08-27T08:13:22.366Z,95
2018-08-27T08:14:02.859Z,95
2018-08-27T08:14:43.420Z,95
2018-08-27T08:15:23.868Z,95
2018-08-27T08:16:04.361Z,95
2018-08-27T08:16:44.876Z,95
2018-08-27T08:17:25.421Z,95
2018-08-27T08:18:05.841Z,90
2018-08-27T08:18:46.359Z,90
2018-08-27T08:19:26.913Z,90
2018-08-27T08:20:07.423Z,90
2018-08-27T08:20:47.971Z,90
2018-08-27T08:21:28.490Z,90
2018-08-27T08:22:08.985Z,90
2018-08-27T08:22:49.520Z,90
2018-08-27T08:23:30.061Z,90
2018-08-27T08:24:10.572Z,90
2018-08-27T08:24:51.087Z,90
2018-08-27T08:25:31.614Z,90
2018-08-27T08:26:12.112Z,95
2018-08-27T08:26:52.667Z,95
2018-08-27T08:27:33.214Z,100
2018-08-27T08:28:13.881Z,105
2018-08-27T08:28:54.318Z,110
2018-08-27T08:29:34.918Z,115
2018-08-27T08:30:15.432Z,125
2018-08-27T08:30:55.983Z,130
2018-08-27T08:31:36.506Z,130
2018-08-27T08:32:17.012Z,135
2018-08-27T08:32:57.485Z,140
2018-08-27T08:33:37.982Z,140
2018-08-27T08:34:18.511Z,140
2018-08-27T08:34:58.982Z,140
2018-08-27T08:35:39.503Z,140
2018-08-27T08:36:20.001Z,145
2018-08-27T08:37:00.530Z,145
2018-08-27T08:37:41.021Z,140
2018-08-27T08:38:21.508Z,140
2018-08-27T08:39:02.076Z,140
2018-08-27T08:39:42.578Z,135
2018-08-27T08:40:23.078Z,135
2018-08-27T08:41:03.597Z,130
2018-08-27T08:41:44.069Z,125
2018-08-27T08:42:24.559Z,120
2018-08-27T08:43:05.033Z,120
2018-08-27T08:43:45.518Z,120
2018-08-27T08:44:25.991Z,120
2018-08-27T08:45:06.535Z,120
2018-08-27T08:45:47.072Z,120
2018-08-27T08:46:27.509Z,120
2018-08-27T08:47:08.045Z,125
2018-08-27T08:47:48.512Z,135
2018-08-27T08:48:29.043Z,145
2018-08-27T08:49:09.547Z,145
2018-08-27T08:49:50.791Z,150
2018-08-27T08:50:31.312Z,155
2018-08-27T08:51:11.835Z,160
2018-08-27T08:51:52.327Z,155
2018-08-27T08:52:32.791Z,155
2018-08-27T08:53:13.326Z,160
2018-08-27T08:53:53.823Z,165
2018-08-27T08:54:34.296Z,170
2018-08-27T08:55:14.774Z,170
2018-08-27T08:55:55.263Z,175
2018-08-27T08:56:35.782Z,175
2018-08-27T08:57:16.233Z,175
2018-08-27T08:57:56.763Z,180
2018-08-27T08:58:37.267Z,180
2018-08-27T08:59:17.746Z,200
2018-08-27T08:59:58.247Z,200
2018-08-27T09:00:38.827Z,205
2018-08-27T09:01:19.475Z,210
2018-08-27T09:01:59.765Z,205
2018-08-27T09:02:40.218Z,200
2018-08-27T09:03:20.754Z,195
2018-08-27T09:04:01.265Z,190
2018-08-27T09:04:41.758Z,185
2018-08-27T09:05:22.255Z,185
2018-08-27T09:06:02.764Z,180
2018-08-27T09:06:43.291Z,185
2018-08-27T09:07:23.784Z,185
2018-08-27T09:08:04.495Z,185
2018-08-27T09:08:44.950Z,185
2018-08-27T09:09:25.551Z,185
2018-08-27T09:10:06.198Z,190
2018-08-27T09:10:46.717Z,190
2018-08-27T09:11:27.200Z,190
2018-08-27T09:12:07.725Z,190
2018-08-27T09:12:48.186Z,195
2018-08-27T09:13:28.829Z,200
2018-08-27T09:14:09.300Z,200
2018-08-27T09:14:49.812Z,205
2018-08-27T09:15:30.293Z,210
2018-08-27T09:16:10.858Z,215
2018-08-27T09:16:51.558Z,215
2018-08-27T09:17:32.081Z,210
2018-08-27T09:18:12.445Z,200
2018-08-27T09:18:53.609Z,185
2018-08-27T09:19:34.090Z,175
2018-08-27T09:20:14.611Z,170
2018-08-27T09:20:55.140Z,165
2018-08-27T09:21:35.644Z,160
2018-08-27T09:22:16.108Z,155
2018-08-27T09:22:56.602Z,150
2018-08-27T09:23:37.114Z,150
2018-08-27T09:24:17.599Z,150
2018-08-27T09:24:58.354Z,150
2018-08-27T09:27:37.105Z,145
2018-08-27T09:28:17.672Z,140
2018-08-27T09:28:58.215Z,135
2018-08-27T09:29:38.734Z,135
2018-08-27T09:30:19.379Z,130
2018-08-27T09:30:59.897Z,130
2018-08-27T09:31:40.427Z,130
2018-08-27T09:32:20.899Z,130
2018-08-27T09:33:01.524Z,130
2018-08-27T09:33:42.054Z,130
2018-08-27T09:34:22.629Z,130
2018-08-27T09:35:03.118Z,130
2018-08-27T09:35:43.795Z,135
2018-08-27T09:36:24.300Z,135
2018-08-27T09:37:04.904Z,145
2018-08-27T09:37:45.336Z,150
2018-08-27T09:38:25.758Z,150
2018-08-27T09:39:06.336Z,155
2018-08-27T09:39:46.793Z,150
2018-08-27T09:40:27.344Z,145
2018-08-27T09:41:07.788Z,140
2018-08-27T09:41:48.283Z,135
2018-08-27T09:42:30.122Z,135
2018-08-27T09:43:10.528Z,135
2018-08-27T09:43:51.034Z,135
2018-08-27T09:44:31.557Z,135
2018-08-27T09:45:12.066Z,135
2018-08-27T09:45:52.629Z,135
2018-08-27T09:46:33.213Z,140
2018-08-27T09:47:13.674Z,140
2018-08-27T09:47:54.152Z,140